createdAt,value
2017-08-03T00:00:54.031Z,85.96
2017-08-03T00:01:53.584Z,86.57
2017-08-03T00:02:53.614Z,87.13
2017-08-03T00:03:53.564Z,86.50
2017-08-03T00:04:53.631Z,86.70
2017-08-03T00:05:53.523Z,86.42
2017-08-03T00:06:53.748Z,86.17
2017-08-03T00:07:53.767Z,86.61
2017-08-03T00:08:53.798Z,87.00
2017-08-03T00:09:53.822Z,87.74
2017-08-03T00:10:53.842Z,86.83
2017-08-03T00:11:53.793Z,87.04
2017-08-03T00:12:53.828Z,87.09
2017-08-03T00:13:53.966Z,87.64
2017-08-03T00:14:53.622Z,87.78
2017-08-03T00:15:53.656Z,87.59
2017-08-03T00:38:34.751Z,88.18
2017-08-03T00:38:53.697Z,88.78
2017-08-03T00:39:53.826Z,88.43
2017-08-03T00:40:53.954Z,88.50
2017-08-03T00:41:53.885Z,88.72
2017-08-03T00:42:53.920Z,88.86
2017-08-03T00:43:53.950Z,87.66
2017-08-03T00:44:53.979Z,88.58
2017-08-03T00:45:53.908Z,88.01
2017-08-03T00:46:54.056Z,87.98
2017-08-03T00:47:53.706Z,88.22
2017-08-03T00:48:53.727Z,88.27
2017-08-03T00:49:53.755Z,88.45
2017-08-03T00:50:53.696Z,88.25
2017-08-03T00:51:53.725Z,88.55
2017-08-03T00:52:53.676Z,88.75
2017-08-03T00:53:53.804Z,88.86
2017-08-03T00:54:53.751Z,88.85
2017-08-03T00:55:53.891Z,89.35
2017-08-03T00:56:53.917Z,89.51
2017-08-03T00:57:53.950Z,89.49
2017-08-03T00:58:54.013Z,89.20
2017-08-03T00:59:53.920Z,89.57
2017-08-03T01:02:34.442Z,89.28
2017-08-03T01:02:35.355Z,89.22
2017-08-03T01:02:53.794Z,89.17
2017-08-03T01:05:50.894Z,89.22
2017-08-03T01:05:52.470Z,89.76
2017-08-03T01:05:53.777Z,89.84
2017-08-03T01:09:02.682Z,90.71
2017-08-03T01:09:03.490Z,90.42
2017-08-03T01:09:04.294Z,89.75
2017-08-03T01:11:43.518Z,90.29
2017-08-03T01:11:44.528Z,91.61
2017-08-03T01:11:53.754Z,90.40
2017-08-03T01:14:33.574Z,90.41
2017-08-03T01:14:34.689Z,91.19
2017-08-03T01:14:53.751Z,91.53
2017-08-03T01:17:44.429Z,90.77
2017-08-03T01:17:45.138Z,90.83
2017-08-03T01:17:53.761Z,91.45
2017-08-03T01:20:31.611Z,91.23
2017-08-03T01:20:32.220Z,90.81
2017-08-03T01:20:53.777Z,90.46
2017-08-03T01:23:45.385Z,90.68
2017-08-03T01:23:46.195Z,91.61
2017-08-03T01:23:53.814Z,90.56
2017-08-03T01:27:07.523Z,90.86
2017-08-03T01:27:08.536Z,90.91
2017-08-03T01:27:09.178Z,91.51
2017-08-03T01:29:46.439Z,91.01
2017-08-03T01:29:47.451Z,91.07
2017-08-03T01:29:53.873Z,90.95
2017-08-03T01:32:31.367Z,90.86
2017-08-03T01:32:31.970Z,90.58
2017-08-03T01:32:53.838Z,90.54
2017-08-03T01:35:51.954Z,91.59
2017-08-03T01:35:53.087Z,90.28
2017-08-03T01:35:53.797Z,90.58
2017-08-03T01:39:17.451Z,90.73
2017-08-03T01:39:18.360Z,90.63
2017-08-03T01:39:19.069Z,90.22
2017-08-03T01:39:53.835Z,89.94
2017-08-03T01:40:54.102Z,90.08
2017-08-03T01:41:53.817Z,90.12
2017-08-03T01:44:31.666Z,90.33
2017-08-03T01:44:32.884Z,90.37
2017-08-03T01:44:53.829Z,90.31
2017-08-03T01:47:48.979Z,90.62
2017-08-03T01:47:50.839Z,90.87
2017-08-03T01:47:53.823Z,90.84
2017-08-03T01:50:31.680Z,91.13
2017-08-03T01:50:32.810Z,92.11
2017-08-03T01:50:53.849Z,90.67
2017-08-03T01:53:49.035Z,91.11
2017-08-03T01:53:50.687Z,91.76
2017-08-03T01:53:53.938Z,92.00
2017-08-03T01:57:03.643Z,91.05
2017-08-03T01:57:04.552Z,91.35
2017-08-03T01:57:05.258Z,91.49
2017-08-03T01:59:49.123Z,91.48
2017-08-03T01:59:50.428Z,90.96
2017-08-03T01:59:53.944Z,90.89
2017-08-03T02:00:54.084Z,91.09
2017-08-03T02:01:54.115Z,91.03
2017-08-03T02:02:54.137Z,91.22
2017-08-03T02:03:54.179Z,90.98
2017-08-03T02:04:54.211Z,90.62
2017-08-03T02:05:54.169Z,92.08
2017-08-03T02:06:54.199Z,91.01
2017-08-03T02:07:54.131Z,90.85
2017-08-03T02:08:54.075Z,90.73
2017-08-03T02:09:54.107Z,90.77
2017-08-03T02:10:53.936Z,91.67
2017-08-03T02:11:53.964Z,91.71
2017-08-03T02:12:53.894Z,91.28
2017-08-03T02:13:53.936Z,90.85
2017-08-03T02:14:53.950Z,91.44
2017-08-03T02:15:53.990Z,90.88
2017-08-03T02:16:53.962Z,91.09
2017-08-03T02:17:53.991Z,90.51
2017-08-03T02:18:54.124Z,90.22
2017-08-03T02:19:54.156Z,90.34
2017-08-03T02:20:54.194Z,90.28
2017-08-03T02:21:54.127Z,90.36
2017-08-03T02:22:54.170Z,90.32
2017-08-03T02:23:54.208Z,90.36
2017-08-03T02:24:54.258Z,90.20
2017-08-03T02:25:54.223Z,90.24
2017-08-03T02:26:54.171Z,90.23
2017-08-03T02:27:53.996Z,90.19
2017-08-03T02:28:54.036Z,90.04
2017-08-03T02:29:53.993Z,90.06
2017-08-03T02:30:54.032Z,90.24
2017-08-03T02:31:53.962Z,90.27
2017-08-03T02:32:53.994Z,90.19
2017-08-03T02:33:54.026Z,90.36
2017-08-03T02:34:53.980Z,90.75
2017-08-03T02:35:54.003Z,90.98
2017-08-03T02:36:54.258Z,91.07
2017-08-03T02:37:54.190Z,91.13
2017-08-03T02:38:54.228Z,91.26
2017-08-03T02:39:54.267Z,91.51
2017-08-03T02:40:54.248Z,91.44
2017-08-03T02:41:54.285Z,91.54
2017-08-03T02:42:54.214Z,91.60
2017-08-03T02:43:54.246Z,91.58
2017-08-03T02:44:54.308Z,91.86
2017-08-03T02:45:54.041Z,92.48
2017-08-03T02:46:54.075Z,93.04
2017-08-03T02:47:54.016Z,91.45
2017-08-03T02:48:54.061Z,91.71
2017-08-03T02:49:54.095Z,91.49
2017-08-03T02:50:54.025Z,91.70
2017-08-03T02:51:54.263Z,91.59
2017-08-03T02:52:54.191Z,91.51
2017-08-03T02:53:54.259Z,91.19
2017-08-03T02:54:54.293Z,91.45
2017-08-03T02:55:54.322Z,90.97
2017-08-03T02:56:54.262Z,90.44
2017-08-03T02:57:54.308Z,90.44
2017-08-03T02:58:54.251Z,89.85
2017-08-03T02:59:54.380Z,89.86
2017-08-03T03:00:54.313Z,89.99
2017-08-03T03:01:54.033Z,89.82
2017-08-03T03:02:54.156Z,90.14
2017-08-03T03:03:54.093Z,90.48
2017-08-03T03:04:54.138Z,90.33
2017-08-03T03:05:54.164Z,89.64
2017-08-03T03:06:54.089Z,89.78
2017-08-03T03:07:54.109Z,89.40
2017-08-03T03:08:54.162Z,89.71
2017-08-03T03:09:54.389Z,89.61
2017-08-03T03:10:54.408Z,89.95
2017-08-03T03:11:54.331Z,89.87
2017-08-03T03:12:54.267Z,88.95
2017-08-03T03:15:50.790Z,89.35
2017-08-03T03:15:51.930Z,89.30
2017-08-03T03:15:54.140Z,88.93
2017-08-03T03:16:54.268Z,88.98
2017-08-03T03:17:54.114Z,89.32
2017-08-03T03:18:54.145Z,89.13
2017-08-03T03:19:54.171Z,89.66
2017-08-03T03:20:54.210Z,88.64
2017-08-03T03:21:54.167Z,88.37
2017-08-03T03:22:54.114Z,89.36
2017-08-03T03:23:54.202Z,88.72
2017-08-03T03:24:54.121Z,88.90
2017-08-03T03:25:54.505Z,89.35
2017-08-03T03:26:54.449Z,88.53
2017-08-03T03:27:54.380Z,88.02
2017-08-03T03:28:54.400Z,87.80
2017-08-03T03:29:54.380Z,88.36
2017-08-03T03:30:54.408Z,87.90
2017-08-03T03:31:54.330Z,87.98
2017-08-03T03:32:54.473Z,88.49
2017-08-03T03:33:54.437Z,88.42
2017-08-03T03:34:54.141Z,88.33
2017-08-03T03:35:54.191Z,87.95
2017-08-03T03:36:54.275Z,87.64
2017-08-03T03:37:54.220Z,87.71
2017-08-03T03:38:54.167Z,88.57
2017-08-03T03:39:54.216Z,88.27
2017-08-03T03:40:54.243Z,87.87
2017-08-03T03:41:54.165Z,88.24
2017-08-03T03:42:54.420Z,88.08
2017-08-03T03:43:54.484Z,88.07
2017-08-03T03:44:54.361Z,88.85
2017-08-03T03:45:54.601Z,88.05
2017-08-03T03:46:54.530Z,88.10
2017-08-03T03:47:54.573Z,87.71
2017-08-03T03:48:54.399Z,88.34
2017-08-03T03:49:54.532Z,88.26
2017-08-03T03:50:54.573Z,88.84
2017-08-03T03:51:54.206Z,88.76
2017-08-03T03:52:54.340Z,88.72
2017-08-03T03:53:54.254Z,88.78
2017-08-03T03:54:54.166Z,88.66
2017-08-03T03:55:54.340Z,88.87
2017-08-03T03:56:54.220Z,89.03
2017-08-03T03:57:54.261Z,88.95
2017-08-03T03:58:54.280Z,88.93
2017-08-03T03:59:54.221Z,89.21
2017-08-03T04:00:54.554Z,89.09
2017-08-03T04:01:54.403Z,89.13
2017-08-03T04:02:54.425Z,89.41
2017-08-03T04:03:54.466Z,89.70
2017-08-03T04:04:54.492Z,89.83
2017-08-03T04:05:54.617Z,89.48
2017-08-03T04:06:54.237Z,90.20
2017-08-03T04:07:54.261Z,90.01
2017-08-03T04:08:54.284Z,90.59
2017-08-03T04:09:54.314Z,90.06
2017-08-03T04:10:54.345Z,90.31
2017-08-03T04:11:54.259Z,89.50
2017-08-03T04:12:54.282Z,89.62
2017-08-03T04:13:54.304Z,89.35
2017-08-03T04:14:54.336Z,89.61
2017-08-03T04:15:54.362Z,89.62
2017-08-03T04:16:54.504Z,89.33
2017-08-03T04:17:54.538Z,89.28
2017-08-03T04:18:54.496Z,89.52
2017-08-03T04:19:54.521Z,89.27
2017-08-03T04:20:54.557Z,89.36
2017-08-03T04:21:54.536Z,89.34
2017-08-03T04:22:54.557Z,89.37
2017-08-03T04:23:54.286Z,89.68
2017-08-03T04:24:54.303Z,89.51
2017-08-03T04:25:54.334Z,89.87
2017-08-03T04:26:54.371Z,89.92
2017-08-03T04:27:54.292Z,89.90
2017-08-03T04:28:54.325Z,89.88
2017-08-03T04:29:54.359Z,90.14
2017-08-03T04:30:54.391Z,89.94
2017-08-03T04:31:54.317Z,89.64
2017-08-03T04:32:54.545Z,90.05
2017-08-03T04:33:54.582Z,90.06
2017-08-03T04:34:54.531Z,90.07
2017-08-03T04:35:54.553Z,90.43
2017-08-03T04:36:54.595Z,89.99
2017-08-03T04:37:54.521Z,90.37
2017-08-03T04:38:54.544Z,90.28
2017-08-03T04:39:54.682Z,90.87
2017-08-03T04:40:54.612Z,89.15
2017-08-03T04:41:54.343Z,90.57
2017-08-03T04:42:54.377Z,90.67
2017-08-03T04:43:54.410Z,90.81
2017-08-03T04:44:54.435Z,91.09
2017-08-03T04:45:54.371Z,90.66
2017-08-03T04:46:54.404Z,90.30
2017-08-03T04:47:54.441Z,91.02
2017-08-03T04:48:54.639Z,91.29
2017-08-03T04:49:54.596Z,90.53
2017-08-03T04:50:54.661Z,90.73
2017-08-03T04:51:54.606Z,90.61
2017-08-03T04:52:54.601Z,90.37
2017-08-03T04:53:54.689Z,90.01
2017-08-03T04:54:54.642Z,90.34
2017-08-03T04:55:54.735Z,90.41
2017-08-03T04:56:54.410Z,90.69
2017-08-03T04:57:54.383Z,90.67
2017-08-03T04:58:54.426Z,91.45
2017-08-03T04:59:54.448Z,90.93
2017-08-03T05:00:54.466Z,90.19
2017-08-03T05:01:54.421Z,89.88
2017-08-03T05:02:54.462Z,91.91
2017-08-03T05:03:54.488Z,90.75
2017-08-03T05:04:54.453Z,89.74
2017-08-03T05:05:54.492Z,90.36
2017-08-03T05:06:54.411Z,89.52
2017-08-03T05:07:54.814Z,90.80
2017-08-03T05:08:54.615Z,90.96
2017-08-03T05:09:54.670Z,91.31
2017-08-03T05:10:54.713Z,90.82
2017-08-03T05:11:54.665Z,91.06
2017-08-03T05:12:54.672Z,90.84
2017-08-03T05:13:54.717Z,91.85
2017-08-03T05:14:54.479Z,91.20
2017-08-03T05:15:54.491Z,90.79
2017-08-03T05:16:54.486Z,90.96
2017-08-03T05:17:54.450Z,91.00
2017-08-03T05:18:54.484Z,90.71
2017-08-03T05:19:54.476Z,90.97
2017-08-03T05:20:54.513Z,90.92
2017-08-03T05:21:54.694Z,91.34
2017-08-03T05:22:54.648Z,90.28
2017-08-03T05:23:54.823Z,89.82
2017-08-03T05:24:54.710Z,90.14
2017-08-03T05:25:54.761Z,89.35
2017-08-03T05:26:54.665Z,90.78
2017-08-03T05:27:54.664Z,90.62
2017-08-03T05:28:54.658Z,90.37
2017-08-03T05:29:54.737Z,90.16
2017-08-03T05:30:54.518Z,89.47
2017-08-03T05:31:54.499Z,89.51
2017-08-03T05:32:54.504Z,88.65
2017-08-03T05:33:54.470Z,89.09
2017-08-03T05:34:54.524Z,89.83
2017-08-03T05:35:54.594Z,88.78
2017-08-03T05:36:54.574Z,89.36
2017-08-03T05:37:54.542Z,90.03
2017-08-03T05:38:54.478Z,89.14
2017-08-03T05:39:54.813Z,88.96
2017-08-03T05:43:23.415Z,89.58
2017-08-03T05:43:24.525Z,89.43
2017-08-03T05:43:25.231Z,88.46
2017-08-03T05:43:54.584Z,88.54
2017-08-03T05:44:54.770Z,89.00
2017-08-03T05:45:54.504Z,88.88
2017-08-03T05:46:54.547Z,89.04
2017-08-03T05:47:54.565Z,88.86
2017-08-03T05:48:54.545Z,88.54
2017-08-03T05:49:54.531Z,88.36
2017-08-03T05:50:54.594Z,88.07
2017-08-03T05:51:54.579Z,88.11
2017-08-03T05:52:54.626Z,88.37
2017-08-03T05:53:54.579Z,88.30
2017-08-03T05:54:54.783Z,88.28
2017-08-03T05:55:54.728Z,88.18
2017-08-03T05:56:54.840Z,88.86
2017-08-03T05:57:54.800Z,88.73
2017-08-03T05:58:54.854Z,88.26
2017-08-03T05:59:54.816Z,89.15
2017-08-03T06:00:54.882Z,88.15
2017-08-03T06:01:54.826Z,87.85
2017-08-03T06:02:54.582Z,87.60
2017-08-03T06:03:54.637Z,88.11
2017-08-03T06:04:54.589Z,87.55
2017-08-03T06:05:54.644Z,87.29
2017-08-03T06:06:54.605Z,86.79
2017-08-03T06:07:54.603Z,87.53
2017-08-03T06:08:54.604Z,87.45
2017-08-03T06:09:54.680Z,86.74
2017-08-03T06:10:54.607Z,86.35
2017-08-03T06:11:54.683Z,86.06
2017-08-03T06:12:54.847Z,86.41
2017-08-03T06:13:54.975Z,86.56
2017-08-03T06:14:54.842Z,86.27
2017-08-03T06:15:54.777Z,86.26
2017-08-03T06:16:54.912Z,87.37
2017-08-03T06:17:54.848Z,86.42
2017-08-03T06:18:55.033Z,86.57
2017-08-03T06:19:54.624Z,86.74
2017-08-03T06:20:54.690Z,86.81
2017-08-03T06:21:54.619Z,86.90
2017-08-03T06:22:54.657Z,86.38
2017-08-03T06:23:54.707Z,86.34
2017-08-03T06:24:54.690Z,87.41
2017-08-03T06:25:54.759Z,87.72
2017-08-03T06:26:54.603Z,87.59
2017-08-03T06:27:54.843Z,88.25
2017-08-03T06:28:54.890Z,88.05
2017-08-03T06:29:54.887Z,87.06
2017-08-03T06:30:54.871Z,86.98
2017-08-03T06:31:54.844Z,86.86
2017-08-03T06:32:54.907Z,87.17
2017-08-03T06:33:54.964Z,87.64
2017-08-03T06:34:55.013Z,87.69
2017-08-03T06:35:54.912Z,87.39
2017-08-03T06:36:54.687Z,87.50
2017-08-03T06:37:54.741Z,87.18
2017-08-03T06:38:54.695Z,87.17
2017-08-03T06:39:54.699Z,87.32
2017-08-03T06:40:54.736Z,88.13
2017-08-03T06:41:54.688Z,87.64
2017-08-03T06:42:54.735Z,86.89
2017-08-03T06:43:54.777Z,87.32
2017-08-03T06:44:54.720Z,87.62
2017-08-03T06:45:55.074Z,87.46
2017-08-03T06:46:54.906Z,86.37
2017-08-03T06:47:55.048Z,87.93
2017-08-03T06:48:54.982Z,88.51
2017-08-03T06:49:54.924Z,89.51
2017-08-03T06:50:54.965Z,90.26
2017-08-03T06:51:54.980Z,91.14
2017-08-03T06:52:54.744Z,92.38
2017-08-03T06:53:55.167Z,92.17
2017-08-03T06:54:54.794Z,93.25
2017-08-03T06:55:54.715Z,93.17
2017-08-03T06:56:54.743Z,93.23
2017-08-03T06:57:54.792Z,93.69
2017-08-03T06:58:54.820Z,94.08
2017-08-03T06:59:54.747Z,94.42
2017-08-03T07:00:54.782Z,94.55
2017-08-03T07:01:55.030Z,94.56
2017-08-03T07:02:54.986Z,95.00
2017-08-03T07:03:55.026Z,95.28
2017-08-03T07:04:54.958Z,95.21
2017-08-03T07:05:55.085Z,95.06
2017-08-03T07:06:55.012Z,95.02
2017-08-03T07:07:54.959Z,95.14
2017-08-03T07:08:55.084Z,95.11
2017-08-03T07:09:55.156Z,94.94
2017-08-03T07:10:54.799Z,95.58
2017-08-03T07:11:54.823Z,96.19
2017-08-03T07:12:54.771Z,96.25
2017-08-03T07:13:54.858Z,96.91
2017-08-03T07:14:54.893Z,96.45
2017-08-03T07:15:54.955Z,96.71
2017-08-03T07:17:12.148Z,97.27
2017-08-03T07:17:54.753Z,97.80
2017-08-03T07:18:55.179Z,97.76
2017-08-03T07:19:55.076Z,98.17
2017-08-03T07:20:55.028Z,98.54
2017-08-03T07:21:55.068Z,98.61
2017-08-03T07:22:55.009Z,99.29
2017-08-03T07:23:55.048Z,99.03
2017-08-03T07:24:55.076Z,98.81
2017-08-03T07:25:55.013Z,98.24
2017-08-03T07:26:55.046Z,98.34
2017-08-03T07:27:54.790Z,98.58
2017-08-03T07:28:54.825Z,98.53
2017-08-03T07:29:54.852Z,98.61
2017-08-03T07:30:54.826Z,98.08
2017-08-03T07:31:54.866Z,99.05
2017-08-03T07:32:54.889Z,99.52
2017-08-03T07:33:54.817Z,99.07
2017-08-03T07:34:54.837Z,99.03
2017-08-03T07:35:55.093Z,99.46
2017-08-03T07:36:55.217Z,100.00
2017-08-03T07:37:55.142Z,99.85
2017-08-03T07:38:55.186Z,99.67
2017-08-03T07:39:55.034Z,99.91
2017-08-03T07:40:55.089Z,99.84
2017-08-03T07:41:55.158Z,99.86
2017-08-03T07:42:55.098Z,99.43
2017-08-03T07:43:54.849Z,99.71
2017-08-03T07:44:55.615Z,100.00
2017-08-03T07:45:54.910Z,100.00
2017-08-03T07:46:54.947Z,100.00
2017-08-03T07:47:54.918Z,100.00
2017-08-03T07:48:54.870Z,100.00
2017-08-03T07:52:14.802Z,100.00
2017-08-03T07:52:15.629Z,100.00
2017-08-03T07:52:16.235Z,100.00
2017-08-03T07:52:54.933Z,100.00
2017-08-03T07:55:39.987Z,100.00
2017-08-03T07:55:41.094Z,100.00
2017-08-03T07:55:54.928Z,100.00
2017-08-03T07:56:55.154Z,100.00
2017-08-03T07:57:55.099Z,100.00
2017-08-03T07:58:55.108Z,100.00
2017-08-03T07:59:55.138Z,100.00
2017-08-03T08:00:55.170Z,100.00
2017-08-03T08:01:54.902Z,100.00
2017-08-03T08:02:55.035Z,100.00
2017-08-03T08:03:54.959Z,100.00
2017-08-03T08:04:54.916Z,100.00
2017-08-03T08:05:55.043Z,100.00
2017-08-03T08:06:55.084Z,100.00
2017-08-03T08:07:54.906Z,100.00
2017-08-03T08:08:55.136Z,100.00
2017-08-03T08:09:55.170Z,100.00
2017-08-03T08:10:55.203Z,100.00
2017-08-03T08:11:55.129Z,100.00
2017-08-03T08:12:55.269Z,100.00
2017-08-03T08:13:55.199Z,100.00
2017-08-03T08:14:55.128Z,100.00
2017-08-03T08:15:55.258Z,100.00
2017-08-03T08:16:55.294Z,100.00
2017-08-03T08:17:55.233Z,100.00
2017-08-03T08:18:54.962Z,100.00
2017-08-03T08:19:55.048Z,99.81
2017-08-03T08:20:55.018Z,99.68
2017-08-03T08:21:54.994Z,99.87
2017-08-03T08:22:55.031Z,99.80
2017-08-03T08:23:55.320Z,100.00
2017-08-03T08:24:55.026Z,100.00
2017-08-03T08:25:55.001Z,99.94
2017-08-03T08:26:55.250Z,100.00
2017-08-03T08:27:55.232Z,100.00
2017-08-03T08:28:55.213Z,99.86
2017-08-03T08:29:55.265Z,100.00
2017-08-03T08:30:55.303Z,100.00
2017-08-03T08:31:55.244Z,100.00
2017-08-03T08:32:55.234Z,100.00
2017-08-03T08:33:55.347Z,100.00
2017-08-03T08:34:55.003Z,100.00
2017-08-03T08:35:55.049Z,100.00
2017-08-03T08:36:54.991Z,100.00
2017-08-03T08:37:55.019Z,100.00
2017-08-03T08:38:55.079Z,99.36
2017-08-03T08:39:55.066Z,99.30
2017-08-03T08:40:55.130Z,99.63
2017-08-03T08:41:55.071Z,99.79
2017-08-03T08:42:55.116Z,100.00
2017-08-03T08:43:55.031Z,100.00
2017-08-03T08:44:55.365Z,100.00
2017-08-03T08:45:55.427Z,100.00
2017-08-03T08:46:55.266Z,99.92
2017-08-03T08:47:55.224Z,100.00
2017-08-03T08:48:55.351Z,100.00
2017-08-03T08:49:55.268Z,100.00
2017-08-03T08:50:55.319Z,100.00
2017-08-03T08:51:55.398Z,100.00
2017-08-03T08:52:55.349Z,99.88
2017-08-03T08:53:55.529Z,99.90
2017-08-03T08:54:55.101Z,99.47
2017-08-03T08:55:55.222Z,99.17
2017-08-03T08:56:55.159Z,99.18
2017-08-03T08:57:55.106Z,98.73
2017-08-03T08:58:55.149Z,98.60
2017-08-03T08:59:55.092Z,98.49
2017-08-03T09:00:55.370Z,98.45
2017-08-03T09:01:55.369Z,98.40
2017-08-03T09:02:55.371Z,98.08
2017-08-03T09:03:55.410Z,98.41
2017-08-03T09:04:55.340Z,98.37
2017-08-03T09:05:55.583Z,98.09
2017-08-03T09:06:55.315Z,98.44
2017-08-03T09:07:55.388Z,98.23
2017-08-03T09:08:55.293Z,98.12
2017-08-03T09:09:55.125Z,98.20
2017-08-03T09:10:55.161Z,98.13
2017-08-03T09:11:55.115Z,97.84
2017-08-03T09:12:55.178Z,98.64
2017-08-03T09:13:55.123Z,98.11
2017-08-03T09:14:55.152Z,98.37
2017-08-03T09:15:55.205Z,98.04
2017-08-03T09:16:55.216Z,97.82
2017-08-03T09:17:55.197Z,97.58
2017-08-03T09:18:55.153Z,97.25
2017-08-03T09:19:55.420Z,96.90
2017-08-03T09:20:55.458Z,96.92
2017-08-03T09:21:55.395Z,97.12
2017-08-03T09:22:55.458Z,97.68
2017-08-03T09:23:55.420Z,97.34
2017-08-03T09:24:55.432Z,96.40
2017-08-03T09:25:55.558Z,95.76
2017-08-03T09:26:55.446Z,96.37
2017-08-03T09:27:55.137Z,96.45
2017-08-03T09:28:55.175Z,95.90
2017-08-03T09:29:55.172Z,96.38
2017-08-03T09:30:55.260Z,96.68
2017-08-03T09:31:55.242Z,97.05
2017-08-03T09:32:55.226Z,96.39
2017-08-03T09:33:55.269Z,96.79
2017-08-03T09:34:55.253Z,96.83
2017-08-03T09:35:55.526Z,97.35
2017-08-03T09:36:55.472Z,97.16
2017-08-03T09:37:55.412Z,97.27
2017-08-03T09:38:55.383Z,97.22
2017-08-03T09:39:55.552Z,96.82
2017-08-03T09:40:55.446Z,96.39
2017-08-03T09:41:55.417Z,96.53
2017-08-03T09:42:55.199Z,96.68
2017-08-03T09:43:55.203Z,96.72
2017-08-03T09:44:55.685Z,96.90
2017-08-03T09:45:55.240Z,97.05
2017-08-03T09:46:55.194Z,96.67
2017-08-03T09:49:43.993Z,97.76
2017-08-03T09:49:55.362Z,97.28
2017-08-03T09:50:55.405Z,97.08
2017-08-03T09:51:55.401Z,97.29
2017-08-03T09:52:55.500Z,97.34
2017-08-03T09:53:55.467Z,97.62
2017-08-03T09:54:55.504Z,97.63
2017-08-03T09:55:55.469Z,97.61
2017-08-03T09:56:55.562Z,97.40
2017-08-03T09:57:55.545Z,97.89
2017-08-03T09:58:55.411Z,97.72
2017-08-03T09:59:55.475Z,97.22
2017-08-03T10:00:55.245Z,98.02
2017-08-03T10:01:55.295Z,96.97
2017-08-03T10:02:55.244Z,96.67
2017-08-03T10:03:55.313Z,96.91
2017-08-03T10:04:55.294Z,97.24
2017-08-03T10:05:55.342Z,96.60
2017-08-03T10:06:55.267Z,96.15
2017-08-03T10:07:55.329Z,96.65
2017-08-03T10:08:55.298Z,96.84
2017-08-03T10:09:55.594Z,97.31
2017-08-03T10:10:55.555Z,96.97
2017-08-03T10:11:55.535Z,97.17
2017-08-03T10:12:55.722Z,97.41
2017-08-03T10:13:55.501Z,97.37
2017-08-03T10:14:55.482Z,96.86
2017-08-03T10:15:55.480Z,97.30
2017-08-03T10:16:55.548Z,97.28
2017-08-03T10:17:55.347Z,96.85
2017-08-03T10:18:55.313Z,96.69
2017-08-03T10:19:55.377Z,96.39
2017-08-03T10:20:55.372Z,96.44
2017-08-03T10:21:55.372Z,96.87
2017-08-03T10:22:55.283Z,96.66
2017-08-03T10:23:55.389Z,96.33
2017-08-03T10:24:55.387Z,95.49
2017-08-03T10:25:55.373Z,97.05
2017-08-03T10:26:55.696Z,96.91
2017-08-03T10:27:55.665Z,97.56
2017-08-03T10:28:55.531Z,97.47
2017-08-03T10:29:55.583Z,98.02
2017-08-03T10:30:55.581Z,97.25
2017-08-03T10:31:55.663Z,97.47
2017-08-03T10:32:55.538Z,98.16
2017-08-03T10:33:55.371Z,98.20
2017-08-03T10:34:55.409Z,97.48
2017-08-03T10:35:55.378Z,96.50
2017-08-03T10:36:55.432Z,96.99
2017-08-03T10:37:55.452Z,96.42
2017-08-03T10:38:55.347Z,96.28
2017-08-03T10:39:55.392Z,96.43
2017-08-03T10:40:55.372Z,96.19
2017-08-03T10:41:55.363Z,96.58
2017-08-03T10:42:55.910Z,96.97
2017-08-03T10:43:55.847Z,96.85
2017-08-03T10:44:55.714Z,96.81
2017-08-03T10:45:55.729Z,97.17
2017-08-03T10:46:55.681Z,96.63
2017-08-03T10:47:55.784Z,96.75
2017-08-03T10:48:55.786Z,96.13
2017-08-03T10:49:55.649Z,96.38
2017-08-03T10:50:55.450Z,96.67
2017-08-03T10:51:55.399Z,96.58
2017-08-03T10:52:55.431Z,96.53
2017-08-03T10:53:55.492Z,96.57
2017-08-03T10:54:55.449Z,96.37
2017-08-03T10:55:55.404Z,96.77
2017-08-03T10:56:55.664Z,95.66
2017-08-03T10:57:55.701Z,95.79
2017-08-03T10:58:55.653Z,96.14
2017-08-03T10:59:55.705Z,95.17
2017-08-03T11:00:55.698Z,95.25
2017-08-03T11:01:55.735Z,96.15
2017-08-03T11:02:55.814Z,95.83
2017-08-03T11:03:55.772Z,95.87
2017-08-03T11:04:55.911Z,94.76
2017-08-03T11:05:55.695Z,94.92
2017-08-03T11:06:55.524Z,94.48
2017-08-03T11:07:55.481Z,94.44
2017-08-03T11:08:55.519Z,94.38
2017-08-03T11:09:55.540Z,93.76
2017-08-03T11:10:55.424Z,93.40
2017-08-03T11:11:55.506Z,93.69
2017-08-03T11:12:55.480Z,93.29
2017-08-03T11:13:55.616Z,93.35
2017-08-03T11:14:55.473Z,93.95
2017-08-03T11:15:56.946Z,93.26
2017-08-03T11:16:55.515Z,93.48
2017-08-03T11:17:56.492Z,93.47
2017-08-03T11:18:55.577Z,93.98
2017-08-03T11:19:55.793Z,93.80
2017-08-03T11:20:56.088Z,93.26
2017-08-03T11:21:55.869Z,92.53
2017-08-03T11:22:55.519Z,93.93
2017-08-03T11:23:55.504Z,93.01
2017-08-03T11:24:55.574Z,92.36
2017-08-03T11:25:55.611Z,93.57
2017-08-03T11:28:32.122Z,92.39
2017-08-03T11:28:55.541Z,93.02
2017-08-03T11:29:55.869Z,93.29
2017-08-03T11:30:55.897Z,92.49
2017-08-03T11:31:55.730Z,91.68
2017-08-03T11:32:55.771Z,92.35
2017-08-03T11:33:55.806Z,91.53
2017-08-03T11:34:56.030Z,93.11
2017-08-03T11:35:55.784Z,92.39
2017-08-03T11:36:55.851Z,92.48
2017-08-03T11:37:55.929Z,92.30
2017-08-03T11:38:56.013Z,92.99
2017-08-03T11:39:55.907Z,92.73
2017-08-03T11:40:55.803Z,91.11
2017-08-03T11:41:55.555Z,91.61
2017-08-03T11:42:55.591Z,91.09
2017-08-03T11:43:55.631Z,91.95
2017-08-03T11:44:55.609Z,91.90
2017-08-03T11:45:55.578Z,92.18
2017-08-03T11:46:55.577Z,92.60
2017-08-03T11:47:55.547Z,90.83
2017-08-03T11:48:55.662Z,91.15
2017-08-03T11:49:55.614Z,91.95
2017-08-03T11:50:55.622Z,91.62
2017-08-03T12:13:24.108Z,76.72
2017-08-03T12:13:55.690Z,77.33
2017-08-03T12:14:55.956Z,76.33
2017-08-03T12:15:55.957Z,74.66
2017-08-03T12:16:55.625Z,74.06
2017-08-03T12:17:55.664Z,74.30
2017-08-03T12:18:55.763Z,75.96
2017-08-03T12:19:55.645Z,75.49
2017-08-03T12:20:55.720Z,74.77
2017-08-03T12:21:55.731Z,73.53
2017-08-03T12:22:55.715Z,74.17
2017-08-03T12:23:55.750Z,72.92
2017-08-03T12:24:55.739Z,75.48
2017-08-03T12:25:55.742Z,77.89
2017-08-03T12:26:55.747Z,78.01
2017-08-03T12:27:55.696Z,78.82
2017-08-03T13:16:42.195Z,81.13
2017-08-03T13:16:55.850Z,82.43
2017-08-03T13:17:56.105Z,83.02
2017-08-03T13:18:55.987Z,83.21
2017-08-03T13:19:56.063Z,81.52
2017-08-03T13:20:56.035Z,80.37
2017-08-03T13:21:56.089Z,80.27
2017-08-03T13:22:55.850Z,79.53
2017-08-03T13:23:55.827Z,78.65
2017-08-03T13:24:55.844Z,79.50
2017-08-03T13:25:55.907Z,77.01
2017-08-03T13:26:55.933Z,76.49
2017-08-03T13:27:55.868Z,75.78
2017-08-03T13:28:55.926Z,74.74
2017-08-03T13:29:55.898Z,74.81
2017-08-03T13:30:55.846Z,77.26
2017-08-03T13:31:56.062Z,77.18
2017-08-03T13:32:56.112Z,73.38
2017-08-03T13:33:56.117Z,74.24
2017-08-03T13:34:56.146Z,74.50
2017-08-03T13:35:56.077Z,72.80
2017-08-03T13:36:56.168Z,73.98
2017-08-03T13:37:56.136Z,74.20
2017-08-03T13:38:56.123Z,74.70
2017-08-03T13:39:55.890Z,75.77
2017-08-03T13:40:55.919Z,75.35
2017-08-03T13:41:55.922Z,74.56
2017-08-03T13:42:55.913Z,76.19
2017-08-03T13:43:55.938Z,73.94
2017-08-03T13:44:55.990Z,73.98
2017-08-03T13:45:55.915Z,73.86
2017-08-03T13:46:56.044Z,75.39
2017-08-03T13:47:55.945Z,75.79
2017-08-03T13:48:56.231Z,75.53
2017-08-03T13:49:56.260Z,75.49
2017-08-03T13:50:56.084Z,72.89
2017-08-03T13:51:56.178Z,75.38
2017-08-03T13:52:56.179Z,73.72
2017-08-03T13:53:56.106Z,72.80
2017-08-03T13:54:55.936Z,71.90
2017-08-03T13:55:55.945Z,71.75
2017-08-03T13:56:55.921Z,72.80
2017-08-03T13:57:55.972Z,71.30
2017-08-03T13:58:56.009Z,72.00
2017-08-03T13:59:55.895Z,69.09
2017-08-03T14:00:55.937Z,71.05
2017-08-03T14:01:56.030Z,69.59
2017-08-03T14:02:55.997Z,72.13
2017-08-03T14:03:55.986Z,69.29
2017-08-03T14:04:55.956Z,69.70
2017-08-03T14:05:56.254Z,67.94
2017-08-03T14:06:56.229Z,66.03
2017-08-03T14:07:56.271Z,66.56
2017-08-03T14:08:56.312Z,69.13
2017-08-03T14:09:56.187Z,68.15
2017-08-03T14:10:56.195Z,67.62
2017-08-03T14:11:56.246Z,68.09
2017-08-03T14:12:56.025Z,65.99
2017-08-03T14:13:55.969Z,66.22
2017-08-03T14:14:55.957Z,68.65
2017-08-03T14:15:56.040Z,69.37
2017-08-03T14:16:55.995Z,70.04
2017-08-03T14:17:56.030Z,67.92
2017-08-03T14:18:56.058Z,70.93
2017-08-03T14:19:56.037Z,67.10
2017-08-03T14:20:56.002Z,68.47
2017-08-03T14:21:56.285Z,67.00